Terminal Aerodrome Forecast
Issued by NWS St Louis, MO

Home | Current Version | Previous Version | Graphics & Text | Print | Product List | Glossary On
Versions: 1 2 3 4 5 6 7 8 9 10 11 12 13 14 15 16 17 18 19 20 21 22 23 24 25 26 27 28 29 30
000
FTUS43 KLSX 210500
TAFSTL
TAF
KSTL 210520Z 2106/2212 15006KT P6SM FEW200
     FM211300 23010KT P6SM SCT050
     FM212200 20009KT P6SM SKC
     FM220700 22008KT P6SM SKC=

USA.gov is the U.S. government's official web portal to all federal, state and local government web resources and services.